Time;durP1;ratioP1;P1;durP2;ratioP2;P2;SDS_P1;SDS_P2;PMS_P1;PMS_P2;Temp;Humidity;BMP_temperature;BMP_pressure;BME280_temperature;BME280_humidity;BME280_pressure;Samples;Min_cycle;Max_cycle;Signal;HPM_P1;HPM_P2
2022/03/12 00:01:37;;;;;;;11.85;4.63;;;;;;;;;;10597987;27;20057;-72
2022/03/12 00:06:39;;;;;;;9.68;3.80;;;;;;;;;;10576117;27;20772;-71
2022/03/12 00:11:50;;;;;;;12.20;4.43;;;;;;;;;;10599557;27;20045;-71
2022/03/12 00:16:52;;;;;;;9.90;4.32;;;;;;;;;;10585324;27;20364;-70
2022/03/12 00:21:55;;;;;;;9.63;4.50;;;;;;;;;;10597824;27;20043;-72
2022/03/12 00:26:57;;;;;;;9.50;4.53;;;;;;;;;;10586625;27;20066;-71
2022/03/12 00:31:58;;;;;;;11.32;4.82;;;;;;;;;;10604458;27;20043;-72
2022/03/12 00:37:00;;;;;;;9.38;4.15;;;;;;;;;;10607373;27;20070;-71
2022/03/12 00:42:01;;;;;;;11.32;4.28;;;;;;;;;;10605574;27;20130;-72
2022/03/12 00:47:03;;;;;;;8.77;3.60;;;;;;;;;;10608765;27;20411;-72
2022/03/12 00:52:05;;;;;;;10.10;4.03;;;;;;;;;;10584721;27;20138;-71
2022/03/12 00:57:10;;;;;;;9.90;3.63;;;;;;;;;;10606965;27;20113;-71
2022/03/12 01:02:14;;;;;;;12.32;4.30;;;;;;;;;;10611237;27;20082;-70
2022/03/12 01:07:15;;;;;;;7.35;3.30;;;;;;;;;;10595127;27;20043;-72
2022/03/12 01:12:17;;;;;;;10.88;3.47;;;;;;;;;;10601625;27;20055;-71
2022/03/12 01:17:18;;;;;;;14.80;4.38;;;;;;;;;;10601476;27;20054;-71
2022/03/12 01:22:20;;;;;;;10.13;3.78;;;;;;;;;;10605037;27;20428;-71
2022/03/12 01:27:21;;;;;;;10.90;4.28;;;;;;;;;;10580936;27;20039;-72
2022/03/12 01:32:23;;;;;;;10.52;3.88;;;;;;;;;;10595713;27;20096;-72
2022/03/12 01:37:24;;;;;;;10.65;4.00;;;;;;;;;;10600722;27;20045;-72
2022/03/12 01:42:27;;;;;;;14.20;4.18;;;;;;;;;;10603101;27;20043;-72
2022/03/12 01:47:28;;;;;;;12.77;4.32;;;;;;;;;;10600301;27;20047;-72
2022/03/12 01:52:30;;;;;;;9.30;3.90;;;;;;;;;;10601425;27;20058;-71
2022/03/12 01:57:32;;;;;;;10.45;3.88;;;;;;;;;;10586316;27;20047;-72
2022/03/12 02:02:34;;;;;;;9.15;4.00;;;;;;;;;;10609352;27;20073;-70
2022/03/12 02:07:35;;;;;;;8.05;3.72;;;;;;;;;;10597523;27;20129;-72
2022/03/12 02:12:38;;;;;;;7.93;3.80;;;;;;;;;;10596394;27;20429;-71
2022/03/12 02:17:39;;;;;;;10.18;4.07;;;;;;;;;;10604588;27;20532;-71
2022/03/12 02:22:41;;;;;;;10.35;3.90;;;;;;;;;;10603485;27;20057;-72
2022/03/12 02:27:42;;;;;;;10.85;4.35;;;;;;;;;;10599511;27;20047;-72
2022/03/12 02:32:45;;;;;;;10.93;3.88;;;;;;;;;;10601704;27;20050;-72
2022/03/12 02:37:48;;;;;;;10.88;4.35;;;;;;;;;;10592851;27;20051;-72
2022/03/12 02:42:51;;;;;;;8.10;3.70;;;;;;;;;;10602301;27;20506;-72
2022/03/12 02:47:55;;;;;;;14.40;3.83;;;;;;;;;;10602347;27;20051;-72
2022/03/12 02:52:56;;;;;;;8.80;3.58;;;;;;;;;;10585928;27;20050;-72
2022/03/12 02:57:58;;;;;;;13.80;3.70;;;;;;;;;;10597366;27;20160;-72
2022/03/12 03:03:01;;;;;;;11.25;3.65;;;;;;;;;;10605037;27;20057;-72
2022/03/12 03:08:04;;;;;;;8.75;3.47;;;;;;;;;;10598414;27;20135;-71
2022/03/12 03:13:18;;;;;;;9.07;3.10;;;;;;;;;;10597062;27;20052;-72
2022/03/12 03:18:23;;;;;;;9.13;3.33;;;;;;;;;;10602976;27;20039;-72
2022/03/12 03:23:28;;;;;;;8.70;3.50;;;;;;;;;;10600002;27;20043;-71
2022/03/12 03:28:29;;;;;;;9.90;3.08;;;;;;;;;;10599289;27;20074;-72
2022/03/12 03:33:31;;;;;;;8.05;3.53;;;;;;;;;;10600640;27;20524;-71
2022/03/12 03:38:32;;;;;;;8.65;3.58;;;;;;;;;;10601949;27;20055;-71
2022/03/12 03:43:33;;;;;;;7.93;3.33;;;;;;;;;;10597194;27;20077;-71
2022/03/12 03:48:38;;;;;;;10.05;3.80;;;;;;;;;;10599454;27;20051;-71
2022/03/12 03:53:39;;;;;;;8.55;3.20;;;;;;;;;;10606897;27;20502;-72
2022/03/12 03:58:41;;;;;;;8.98;3.53;;;;;;;;;;10610044;27;20054;-71
2022/03/12 04:03:51;;;;;;;6.40;3.20;;;;;;;;;;10609428;27;20047;-72
2022/03/12 04:08:54;;;;;;;9.37;3.50;;;;;;;;;;10585661;27;20127;-71
2022/03/12 04:13:57;;;;;;;8.98;3.53;;;;;;;;;;10588119;27;20051;-71
2022/03/12 04:18:59;;;;;;;9.38;3.75;;;;;;;;;;10610573;27;20054;-72
2022/03/12 04:24:01;;;;;;;8.82;3.00;;;;;;;;;;10592387;27;20142;-71
2022/03/12 04:29:05;;;;;;;10.30;3.85;;;;;;;;;;10591312;27;20043;-71
2022/03/12 04:34:07;;;;;;;11.15;4.03;;;;;;;;;;10582526;27;20499;-71
2022/03/12 04:39:09;;;;;;;15.70;3.92;;;;;;;;;;10596376;27;20043;-71
2022/03/12 04:44:11;;;;;;;8.93;3.30;;;;;;;;;;10601690;27;20070;-71
2022/03/12 04:49:12;;;;;;;11.63;3.28;;;;;;;;;;10598533;27;20499;-72
2022/03/12 04:54:13;;;;;;;7.45;3.00;;;;;;;;;;10606890;27;20135;-72
2022/03/12 04:59:15;;;;;;;9.38;3.42;;;;;;;;;;10610083;27;20043;-71
2022/03/12 05:04:16;;;;;;;7.30;3.17;;;;;;;;;;10612805;27;20130;-72
2022/03/12 05:09:19;;;;;;;7.88;3.13;;;;;;;;;;10599575;27;20043;-71
2022/03/12 05:14:22;;;;;;;11.40;3.55;;;;;;;;;;10604771;27;20047;-72
2022/03/12 05:19:26;;;;;;;11.15;3.58;;;;;;;;;;10600212;27;20044;-71
2022/03/12 05:24:27;;;;;;;8.02;3.25;;;;;;;;;;10591757;27;20138;-71
2022/03/12 05:29:30;;;;;;;9.52;2.80;;;;;;;;;;10602343;27;20043;-71
2022/03/12 05:34:31;;;;;;;7.40;3.17;;;;;;;;;;10607837;27;20113;-71
2022/03/12 05:39:34;;;;;;;9.80;3.55;;;;;;;;;;10606916;27;20092;-72
2022/03/12 05:44:36;;;;;;;11.75;3.72;;;;;;;;;;10588158;27;20193;-72
2022/03/12 05:49:37;;;;;;;7.05;2.45;;;;;;;;;;10607392;27;20850;-71
2022/03/12 05:54:39;;;;;;;7.55;2.83;;;;;;;;;;10599531;27;20058;-71
2022/03/12 05:59:40;;;;;;;9.38;3.80;;;;;;;;;;10603191;27;20042;-72
2022/03/12 06:04:42;;;;;;;8.88;3.15;;;;;;;;;;10611586;27;20073;-71
2022/03/12 06:09:44;;;;;;;7.35;2.70;;;;;;;;;;10601797;27;20051;-72
2022/03/12 06:14:49;;;;;;;8.60;2.70;;;;;;;;;;10602489;27;20089;-72
2022/03/12 06:19:51;;;;;;;8.68;3.72;;;;;;;;;;10579269;27;20914;-73
2022/03/12 06:24:53;;;;;;;7.05;2.72;;;;;;;;;;10591194;27;20142;-73
2022/03/12 06:29:56;;;;;;;9.32;3.42;;;;;;;;;;10592913;27;20043;-72
2022/03/12 06:34:58;;;;;;;9.00;3.35;;;;;;;;;;10594865;27;20047;-72
2022/03/12 06:40:00;;;;;;;7.88;2.80;;;;;;;;;;10596606;27;20051;-71
2022/03/12 06:45:02;;;;;;;6.70;2.67;;;;;;;;;;10594477;27;20088;-72
2022/03/12 06:50:08;;;;;;;7.88;2.58;;;;;;;;;;10595318;27;20054;-72
2022/03/12 06:55:09;;;;;;;7.18;2.90;;;;;;;;;;10593329;27;20053;-72
2022/03/12 07:00:13;;;;;;;8.05;2.85;;;;;;;;;;10603008;27;20061;-71
2022/03/12 07:05:14;;;;;;;7.15;2.67;;;;;;;;;;10596449;27;20114;-71
2022/03/12 07:10:16;;;;;;;7.32;3.25;;;;;;;;;;10602893;27;20070;-72
2022/03/12 07:15:19;;;;;;;9.27;3.58;;;;;;;;;;10591899;27;20035;-72
2022/03/12 07:20:20;;;;;;;8.35;3.20;;;;;;;;;;10596177;27;20035;-72
2022/03/12 07:25:22;;;;;;;5.30;2.33;;;;;;;;;;10597032;27;20125;-72
2022/03/12 07:30:23;;;;;;;7.50;3.10;;;;;;;;;;10599034;27;20051;-72
2022/03/12 07:35:26;;;;;;;7.93;2.75;;;;;;;;;;10595037;27;20040;-73
2022/03/12 07:40:27;;;;;;;6.70;2.95;;;;;;;;;;10587526;27;20035;-73
2022/03/12 07:45:29;;;;;;;6.30;2.65;;;;;;;;;;10566863;27;20057;-73
2022/03/12 07:50:30;;;;;;;7.88;3.25;;;;;;;;;;10589121;27;20073;-73
2022/03/12 07:55:32;;;;;;;8.57;2.65;;;;;;;;;;10595177;27;20073;-73
2022/03/12 08:00:34;;;;;;;8.57;3.47;;;;;;;;;;10598244;27;20055;-72
2022/03/12 08:05:36;;;;;;;7.75;3.00;;;;;;;;;;10594513;27;20050;-73
2022/03/12 08:11:25;;;;;;;6.07;2.33;;;;;;;;;;10579463;27;20055;-72
2022/03/12 08:16:00;;;;;;;14.80;3.20;;;;;;;;;;10596794;27;20039;-73
2022/03/12 08:21:01;;;;;;;8.10;3.00;;;;;;;;;;10575807;27;20043;-73
2022/03/12 08:26:03;;;;;;;8.70;3.20;;;;;;;;;;10597583;27;20422;-72
2022/03/12 08:31:05;;;;;;;9.00;3.13;;;;;;;;;;10598755;27;20506;-74
2022/03/12 08:36:06;;;;;;;7.10;2.78;;;;;;;;;;10595955;27;20074;-75
2022/03/12 08:41:10;;;;;;;8.10;3.03;;;;;;;;;;10597033;27;20046;-72
2022/03/12 08:46:11;;;;;;;6.50;3.03;;;;;;;;;;10606876;27;20045;-73
2022/03/12 08:51:13;;;;;;;7.15;3.38;;;;;;;;;;10604818;27;20493;-73
2022/03/12 08:56:14;;;;;;;10.15;3.28;;;;;;;;;;10608081;27;20516;-74
2022/03/12 09:01:16;;;;;;;12.18;3.60;;;;;;;;;;10607593;27;20039;-73
2022/03/12 09:06:19;;;;;;;9.70;3.55;;;;;;;;;;10617456;27;20073;-73
2022/03/12 09:11:20;;;;;;;9.40;3.60;;;;;;;;;;10598035;27;20058;-74
2022/03/12 09:16:22;;;;;;;11.80;3.55;;;;;;;;;;10595324;27;20252;-73
2022/03/12 09:21:24;;;;;;;12.02;4.25;;;;;;;;;;10576092;27;20175;-73
2022/03/12 09:26:26;;;;;;;10.55;3.80;;;;;;;;;;10605434;27;20042;-73
2022/03/12 09:31:27;;;;;;;11.18;3.60;;;;;;;;;;10607794;27;20051;-73
2022/03/12 09:36:30;;;;;;;9.27;3.38;;;;;;;;;;10610499;27;20047;-72
2022/03/12 09:41:38;;;;;;;9.15;3.55;;;;;;;;;;10601254;27;20043;-73
2022/03/12 09:46:39;;;;;;;8.32;4.18;;;;;;;;;;10601358;27;20506;-73
2022/03/12 09:51:41;;;;;;;8.45;3.55;;;;;;;;;;10604743;27;20051;-73
2022/03/12 09:56:43;;;;;;;10.02;4.32;;;;;;;;;;10602848;27;20475;-72
2022/03/12 10:01:44;;;;;;;9.65;4.18;;;;;;;;;;10609741;27;20523;-70
2022/03/12 10:06:47;;;;;;;8.65;3.78;;;;;;;;;;10589285;27;20084;-72
2022/03/12 10:11:52;;;;;;;11.60;4.10;;;;;;;;;;10607992;27;20043;-74
2022/03/12 10:16:53;;;;;;;13.80;3.97;;;;;;;;;;10597635;27;20062;-73
2022/03/12 10:21:55;;;;;;;11.82;4.55;;;;;;;;;;10593981;27;20047;-73
2022/03/12 10:26:56;;;;;;;9.00;4.13;;;;;;;;;;10605732;27;20047;-74
2022/03/12 10:31:58;;;;;;;8.25;3.97;;;;;;;;;;10591736;27;20051;-73
2022/03/12 10:36:59;;;;;;;11.15;4.47;;;;;;;;;;10576871;27;20126;-74
2022/03/12 10:42:07;;;;;;;10.30;4.00;;;;;;;;;;10603289;27;20039;-73
2022/03/12 10:47:22;;;;;;;8.52;3.88;;;;;;;;;;10605800;27;20054;-73
2022/03/12 10:52:25;;;;;;;8.98;4.03;;;;;;;;;;10601700;27;20063;-71
2022/03/12 10:57:27;;;;;;;9.05;4.50;;;;;;;;;;10603055;27;20061;-71
2022/03/12 11:02:28;;;;;;;10.35;4.10;;;;;;;;;;10605128;27;20062;-70
2022/03/12 11:07:30;;;;;;;10.75;4.45;;;;;;;;;;10602472;27;20549;-71
2022/03/12 11:12:35;;;;;;;8.85;4.22;;;;;;;;;;10602382;27;20051;-70
2022/03/12 11:17:44;;;;;;;9.20;4.25;;;;;;;;;;10594080;27;20749;-73
2022/03/12 11:22:50;;;;;;;10.82;4.47;;;;;;;;;;10599941;27;20054;-73
2022/03/12 11:27:56;;;;;;;9.85;4.25;;;;;;;;;;10601585;27;20121;-73
2022/03/12 11:33:05;;;;;;;9.20;4.25;;;;;;;;;;10601274;27;20047;-73
2022/03/12 11:38:11;;;;;;;11.35;4.50;;;;;;;;;;10572680;28;20043;-73
2022/03/12 11:43:27;;;;;;;8.88;4.47;;;;;;;;;;10592670;27;20039;-73
2022/03/12 11:48:38;;;;;;;11.23;4.60;;;;;;;;;;10599427;27;20118;-75
2022/03/12 11:53:40;;;;;;;13.20;4.82;;;;;;;;;;10603819;27;20058;-75
2022/03/12 11:58:47;;;;;;;13.05;5.40;;;;;;;;;;10602983;27;20506;-73
2022/03/12 12:03:50;;;;;;;10.50;4.35;;;;;;;;;;10602582;27;20514;-72
2022/03/12 12:08:53;;;;;;;9.13;4.00;;;;;;;;;;10584059;27;20483;-75
2022/03/12 12:13:55;;;;;;;9.68;4.30;;;;;;;;;;10602646;27;20077;-73
2022/03/12 12:18:57;;;;;;;8.23;4.20;;;;;;;;;;10608395;27;20521;-71
2022/03/12 12:23:58;;;;;;;9.60;4.65;;;;;;;;;;10591988;27;20057;-71
2022/03/12 12:29:00;;;;;;;13.10;4.97;;;;;;;;;;10574408;27;20062;-71
2022/03/12 12:34:02;;;;;;;9.02;4.70;;;;;;;;;;10575147;27;20047;-69
2022/03/12 12:39:05;;;;;;;13.13;4.95;;;;;;;;;;10611498;27;20482;-71
2022/03/12 12:44:07;;;;;;;9.35;4.97;;;;;;;;;;10605877;27;20042;-71
2022/03/12 12:49:08;;;;;;;10.00;4.93;;;;;;;;;;10610291;27;20048;-73
2022/03/12 12:54:10;;;;;;;12.75;5.22;;;;;;;;;;10582176;27;20139;-72
2022/03/12 12:59:13;;;;;;;9.10;4.55;;;;;;;;;;10600375;27;20063;-73
2022/03/12 13:04:15;;;;;;;9.55;4.85;;;;;;;;;;10615538;27;20047;-72
2022/03/12 13:09:20;;;;;;;10.68;4.45;;;;;;;;;;10611097;27;20669;-72
2022/03/12 13:14:23;;;;;;;12.43;4.53;;;;;;;;;;10592299;27;20517;-70
2022/03/12 13:19:28;;;;;;;8.88;4.40;;;;;;;;;;10603778;27;20050;-70
2022/03/12 13:24:42;;;;;;;10.45;4.53;;;;;;;;;;10607671;27;20039;-70
2022/03/12 13:29:43;;;;;;;12.23;5.22;;;;;;;;;;10600645;27;20043;-70
2022/03/12 13:34:45;;;;;;;10.73;5.10;;;;;;;;;;10603416;27;20075;-71
2022/03/12 13:39:46;;;;;;;12.90;5.38;;;;;;;;;;10568740;27;20485;-70
2022/03/12 13:44:48;;;;;;;13.50;5.25;;;;;;;;;;10568351;27;20047;-70
2022/03/12 13:49:50;;;;;;;13.43;5.57;;;;;;;;;;10591551;27;20134;-70
2022/03/12 13:55:03;;;;;;;10.00;4.70;;;;;;;;;;10608428;27;20043;-71
2022/03/12 14:00:09;;;;;;;9.82;4.55;;;;;;;;;;10605624;27;20043;-71
2022/03/12 14:05:39;;;;;;;10.23;4.67;;;;;;;;;;10576412;27;20039;-71
2022/03/12 14:10:44;;;;;;;10.55;4.68;;;;;;;;;;10601496;27;20436;-69
2022/03/12 14:15:47;;;;;;;9.73;5.28;;;;;;;;;;10607644;27;20148;-68
2022/03/12 14:20:49;;;;;;;8.88;4.53;;;;;;;;;;10607137;27;20440;-71
2022/03/12 14:25:53;;;;;;;9.13;4.50;;;;;;;;;;10582790;27;20096;-71
2022/03/12 14:30:54;;;;;;;10.48;5.00;;;;;;;;;;10600150;27;20106;-71
2022/03/12 14:35:58;;;;;;;11.40;4.65;;;;;;;;;;10603201;27;20050;-71
2022/03/12 14:40:59;;;;;;;10.70;4.70;;;;;;;;;;10600497;27;20575;-72
2022/03/12 14:46:01;;;;;;;11.25;4.55;;;;;;;;;;10588144;27;20502;-71
2022/03/12 14:51:03;;;;;;;9.77;4.82;;;;;;;;;;10578865;27;20047;-71
2022/03/12 14:56:04;;;;;;;8.98;4.57;;;;;;;;;;10606353;27;20050;-72
2022/03/12 15:01:09;;;;;;;14.80;5.35;;;;;;;;;;10599353;27;20043;-71
2022/03/12 15:06:17;;;;;;;9.95;4.30;;;;;;;;;;10604120;27;20045;-71
2022/03/12 15:11:22;;;;;;;11.55;4.70;;;;;;;;;;10564430;27;20043;-72
2022/03/12 15:16:30;;;;;;;9.68;4.80;;;;;;;;;;10604652;27;20082;-72
2022/03/12 15:21:31;;;;;;;11.35;5.30;;;;;;;;;;10598346;27;20066;-71
2022/03/12 15:26:33;;;;;;;9.77;4.68;;;;;;;;;;10593023;27;20422;-71
2022/03/12 15:31:35;;;;;;;11.18;5.00;;;;;;;;;;10591513;27;20039;-71
2022/03/12 15:36:38;;;;;;;10.63;4.82;;;;;;;;;;10575601;28;20051;-70
2022/03/12 15:41:40;;;;;;;10.73;4.95;;;;;;;;;;10585800;27;20450;-72
2022/03/12 15:46:41;;;;;;;12.02;5.10;;;;;;;;;;10590340;27;20035;-71
2022/03/12 15:51:43;;;;;;;10.32;4.72;;;;;;;;;;10607792;27;20050;-69
2022/03/12 15:56:44;;;;;;;11.88;5.20;;;;;;;;;;10609880;27;20047;-73
2022/03/12 16:01:46;;;;;;;10.18;5.13;;;;;;;;;;10602725;27;20063;-73
2022/03/12 16:06:48;;;;;;;9.77;4.90;;;;;;;;;;10583551;27;20044;-71
2022/03/12 16:11:50;;;;;;;11.52;5.50;;;;;;;;;;10599619;27;20525;-72
2022/03/12 16:16:51;;;;;;;10.02;4.72;;;;;;;;;;10612877;27;20043;-72
2022/03/12 16:21:53;;;;;;;13.23;5.28;;;;;;;;;;10611934;27;20054;-72
2022/03/12 16:26:54;;;;;;;10.52;5.03;;;;;;;;;;10580247;27;20042;-72
2022/03/12 16:31:56;;;;;;;13.70;4.97;;;;;;;;;;10590460;27;20050;-72
2022/03/12 16:36:58;;;;;;;12.98;6.13;;;;;;;;;;10612322;27;20043;-73
2022/03/12 16:42:00;;;;;;;16.75;5.63;;;;;;;;;;10596327;27;20112;-73
2022/03/12 16:47:03;;;;;;;10.23;5.05;;;;;;;;;;10597120;27;20126;-73
2022/03/12 16:52:05;;;;;;;9.30;4.95;;;;;;;;;;10599650;27;20039;-73
2022/03/12 16:57:08;;;;;;;11.63;5.40;;;;;;;;;;10603326;27;20066;-73
2022/03/12 17:02:09;;;;;;;10.40;4.97;;;;;;;;;;10588127;27;20046;-72
2022/03/12 17:07:12;;;;;;;14.30;5.68;;;;;;;;;;10573769;27;20035;-72
2022/03/12 17:12:18;;;;;;;13.25;5.07;;;;;;;;;;10598598;27;20122;-72
2022/03/12 17:17:23;;;;;;;12.75;5.63;;;;;;;;;;10596827;27;20538;-72
2022/03/12 17:22:24;;;;;;;11.82;5.43;;;;;;;;;;10605138;27;20035;-72
2022/03/12 17:27:26;;;;;;;11.23;5.88;;;;;;;;;;10602133;27;20049;-72
2022/03/12 17:32:29;;;;;;;11.63;5.60;;;;;;;;;;10596184;27;20471;-73
2022/03/12 17:37:31;;;;;;;17.40;8.07;;;;;;;;;;10583845;27;20074;-74
2022/03/12 17:42:36;;;;;;;12.98;6.00;;;;;;;;;;10602902;27;20116;-74
2022/03/12 17:47:39;;;;;;;12.82;5.63;;;;;;;;;;10605451;27;20062;-74
2022/03/12 17:52:41;;;;;;;12.27;5.88;;;;;;;;;;10599403;27;20080;-74
2022/03/12 17:57:44;;;;;;;13.27;6.18;;;;;;;;;;10599870;27;20790;-74
2022/03/12 18:02:46;;;;;;;14.20;6.43;;;;;;;;;;10599598;27;20071;-73
2022/03/12 18:07:47;;;;;;;14.50;6.68;;;;;;;;;;10598720;27;20129;-73
2022/03/12 18:12:49;;;;;;;13.50;5.85;;;;;;;;;;10601501;27;20434;-73
2022/03/12 18:17:51;;;;;;;13.85;5.78;;;;;;;;;;10592850;27;20166;-73
2022/03/12 18:22:52;;;;;;;11.75;5.57;;;;;;;;;;10575312;27;20553;-73
2022/03/12 18:27:54;;;;;;;10.20;5.68;;;;;;;;;;10599437;27;20039;-75
2022/03/12 18:32:56;;;;;;;11.82;5.40;;;;;;;;;;10600165;27;20032;-74
2022/03/12 18:37:58;;;;;;;16.52;5.97;;;;;;;;;;10593190;27;20456;-74
2022/03/12 18:43:01;;;;;;;13.85;5.85;;;;;;;;;;10581249;27;20040;-74
2022/03/12 18:48:02;;;;;;;10.85;5.00;;;;;;;;;;10590389;27;20058;-74
2022/03/12 18:53:03;;;;;;;11.48;5.53;;;;;;;;;;10596599;27;20039;-75
2022/03/12 18:58:05;;;;;;;11.25;5.22;;;;;;;;;;10599819;27;20047;-72
2022/03/12 19:03:13;;;;;;;16.17;5.72;;;;;;;;;;10615450;27;20049;-72
2022/03/12 19:08:19;;;;;;;10.77;4.78;;;;;;;;;;10600749;27;20047;-72
2022/03/12 19:13:21;;;;;;;10.93;5.07;;;;;;;;;;10584459;27;20047;-73
2022/03/12 19:18:22;;;;;;;11.15;5.05;;;;;;;;;;10587419;27;20057;-72
2022/03/12 19:23:24;;;;;;;10.90;5.07;;;;;;;;;;10580907;27;20062;-73
2022/03/12 19:28:28;;;;;;;15.40;5.80;;;;;;;;;;10586351;27;20043;-72
2022/03/12 19:33:31;;;;;;;10.20;5.22;;;;;;;;;;10588371;27;20046;-72
2022/03/12 19:38:33;;;;;;;12.60;5.78;;;;;;;;;;10581658;27;21017;-72
2022/03/12 19:43:36;;;;;;;18.23;7.28;;;;;;;;;;10587898;27;20482;-72
2022/03/12 19:48:38;;;;;;;18.27;6.28;;;;;;;;;;10592218;27;20053;-73
2022/03/12 19:53:40;;;;;;;16.75;6.82;;;;;;;;;;10595046;27;20043;-72
2022/03/12 19:59:07;;;;;;;13.80;5.85;;;;;;;;;;10592286;27;20047;-72
2022/03/12 20:04:34;;;;;;;15.23;6.07;;;;;;;;;;10587280;27;20719;-73
2022/03/12 20:09:36;;;;;;;15.20;5.63;;;;;;;;;;10581588;27;20061;-74
2022/03/12 20:14:38;;;;;;;19.23;5.88;;;;;;;;;;10573545;27;20057;-74
2022/03/12 20:19:40;;;;;;;13.68;5.82;;;;;;;;;;10601254;27;20078;-74
2022/03/12 20:24:42;;;;;;;11.75;5.60;;;;;;;;;;10597327;27;20510;-73
2022/03/12 20:29:44;;;;;;;11.55;5.07;;;;;;;;;;10595650;27;20059;-73
2022/03/12 20:34:46;;;;;;;11.85;5.93;;;;;;;;;;10594560;27;20054;-74
2022/03/12 20:39:48;;;;;;;11.10;5.47;;;;;;;;;;10593648;27;20073;-73
2022/03/12 20:44:50;;;;;;;11.10;5.50;;;;;;;;;;10581286;27;20055;-73
2022/03/12 20:49:52;;;;;;;16.17;5.43;;;;;;;;;;10601831;27;20074;-74
2022/03/12 20:54:54;;;;;;;9.57;4.30;;;;;;;;;;10607568;27;20046;-73
2022/03/12 20:59:57;;;;;;;13.50;5.05;;;;;;;;;;10607990;27;20043;-73
2022/03/12 21:04:59;;;;;;;11.63;5.03;;;;;;;;;;10612342;27;20074;-72
2022/03/12 21:10:00;;;;;;;11.65;4.70;;;;;;;;;;10607850;27;20055;-73
2022/03/12 21:15:02;;;;;;;14.02;5.95;;;;;;;;;;10600825;27;20046;-73
2022/03/12 21:20:05;;;;;;;14.82;6.85;;;;;;;;;;10596131;27;20051;-73
2022/03/12 21:25:08;;;;;;;17.13;8.00;;;;;;;;;;10593523;27;20123;-73
2022/03/12 21:30:17;;;;;;;17.67;7.60;;;;;;;;;;10593744;27;20058;-73
2022/03/12 21:35:19;;;;;;;17.25;6.88;;;;;;;;;;10595093;27;20142;-73
2022/03/12 21:40:24;;;;;;;18.02;5.07;;;;;;;;;;10598121;27;20332;-73
2022/03/12 21:45:26;;;;;;;10.45;4.82;;;;;;;;;;10599699;27;20055;-74
2022/03/12 21:50:29;;;;;;;14.10;6.05;;;;;;;;;;10582916;27;20555;-73
2022/03/12 21:55:32;;;;;;;14.93;6.35;;;;;;;;;;10599066;27;20061;-73
2022/03/12 22:00:35;;;;;;;13.32;5.40;;;;;;;;;;10597042;27;20047;-71
2022/03/12 22:05:38;;;;;;;31.05;11.50;;;;;;;;;;10597938;27;20035;-73
2022/03/12 22:10:39;;;;;;;61.15;18.52;;;;;;;;;;10599236;27;20580;-72
2022/03/12 22:15:41;;;;;;;44.33;14.70;;;;;;;;;;10597633;27;20067;-73
2022/03/12 22:20:43;;;;;;;33.25;11.63;;;;;;;;;;10607010;27;20118;-73
2022/03/12 22:25:45;;;;;;;20.08;7.72;;;;;;;;;;10604228;27;20509;-73
2022/03/12 22:30:48;;;;;;;17.73;7.32;;;;;;;;;;10597141;27;20153;-72
2022/03/12 22:35:50;;;;;;;15.68;7.35;;;;;;;;;;10588664;27;20047;-72
2022/03/12 22:40:53;;;;;;;15.52;7.57;;;;;;;;;;10566407;27;20074;-73
2022/03/12 22:45:56;;;;;;;15.55;7.00;;;;;;;;;;10592183;27;20507;-73
2022/03/12 22:50:57;;;;;;;18.75;7.05;;;;;;;;;;10581607;27;20055;-73
2022/03/12 22:55:59;;;;;;;16.50;5.93;;;;;;;;;;10592112;27;20173;-73
2022/03/12 23:01:01;;;;;;;9.40;4.80;;;;;;;;;;10596565;27;20062;-71
2022/03/12 23:11:24;;;;;;;14.27;5.75;;;;;;;;;;10599844;27;20134;-74
2022/03/12 23:16:34;;;;;;;16.00;6.82;;;;;;;;;;10577235;27;20047;-72
2022/03/12 23:21:36;;;;;;;13.27;5.57;;;;;;;;;;10599637;27;20050;-72
2022/03/12 23:26:39;;;;;;;10.50;4.90;;;;;;;;;;10587550;27;20166;-72
2022/03/12 23:32:05;;;;;;;12.50;5.10;;;;;;;;;;10584365;27;20062;-73
2022/03/12 23:37:06;;;;;;;12.30;4.95;;;;;;;;;;10585683;28;20052;-73
2022/03/12 23:42:09;;;;;;;11.55;4.57;;;;;;;;;;10605822;27;20126;-72
2022/03/12 23:47:11;;;;;;;12.68;4.65;;;;;;;;;;10599784;27;20047;-73
2022/03/12 23:52:42;;;;;;;9.77;4.13;;;;;;;;;;10602450;27;20036;-73
2022/03/12 23:57:45;;;;;;;10.73;4.30;;;;;;;;;;10585765;27;20117;-73
